Time;durP1;ratioP1;P1;durP2;ratioP2;P2;SDS_P1;SDS_P2;PMS_P1;PMS_P2;Temp;Humidity;BMP_temperature;BMP_pressure;BME280_temperature;BME280_humidity;BME280_pressure;Samples;Min_cycle;Max_cycle;Signal;HPM_P1;HPM_P2
2023/03/16 00:00:12;;;;;;;8.68;6.47;;;;;;;;;;4974437;28;20210;-63
2023/03/16 00:02:40;;;;;;;8.60;6.13;;;;;;;;;;4961337;28;20285;-63
2023/03/16 00:05:07;;;;;;;11.88;5.97;;;;;;;;;;4955613;29;20221;-63
2023/03/16 00:07:35;;;;;;;10.00;6.53;;;;;;;;;;4955503;28;20201;-62
2023/03/16 00:10:02;;;;;;;7.22;6.45;;;;;;;;;;4959258;28;20202;-62
2023/03/16 00:12:33;;;;;;;8.32;6.47;;;;;;;;;;4955836;29;20561;-63
2023/03/16 00:15:01;;;;;;;9.85;6.00;;;;;;;;;;4955618;29;20200;-63
2023/03/16 00:17:28;;;;;;;13.23;6.75;;;;;;;;;;4955412;29;20295;-63
2023/03/16 00:19:56;;;;;;;14.48;7.03;;;;;;;;;;4955436;29;20197;-63
2023/03/16 00:22:23;;;;;;;8.02;6.30;;;;;;;;;;4954993;29;20204;-63
2023/03/16 00:24:51;;;;;;;9.45;5.75;;;;;;;;;;4955326;29;20232;-62
2023/03/16 00:27:18;;;;;;;6.22;5.18;;;;;;;;;;4954992;29;20209;-62
2023/03/16 00:29:48;;;;;;;9.75;6.40;;;;;;;;;;4955025;29;20200;-62
2023/03/16 00:32:16;;;;;;;12.93;6.40;;;;;;;;;;4955441;29;20202;-62
2023/03/16 00:34:44;;;;;;;9.63;7.00;;;;;;;;;;4955600;29;20299;-62
2023/03/16 00:37:12;;;;;;;13.43;7.25;;;;;;;;;;4954895;29;20205;-63
2023/03/16 00:39:40;;;;;;;10.98;6.32;;;;;;;;;;4954889;29;20195;-62
2023/03/16 00:42:08;;;;;;;10.30;6.00;;;;;;;;;;4955165;29;20287;-62
2023/03/16 00:44:35;;;;;;;11.10;5.97;;;;;;;;;;4955168;29;20219;-62
2023/03/16 00:47:04;;;;;;;7.88;5.60;;;;;;;;;;4955442;29;20196;-62
2023/03/16 00:49:33;;;;;;;12.20;6.93;;;;;;;;;;4954805;29;20204;-62
2023/03/16 00:52:01;;;;;;;13.50;6.20;;;;;;;;;;4955575;28;20359;-62
2023/03/16 00:54:28;;;;;;;10.32;6.35;;;;;;;;;;4955032;29;20240;-62
2023/03/16 00:56:55;;;;;;;12.63;6.63;;;;;;;;;;4955387;29;20197;-62
2023/03/16 00:59:22;;;;;;;10.05;6.10;;;;;;;;;;4954772;29;20206;-62
2023/03/16 01:01:51;;;;;;;11.30;6.22;;;;;;;;;;4964640;28;20206;-62
2023/03/16 01:04:19;;;;;;;11.05;5.90;;;;;;;;;;4974218;28;20281;-62
2023/03/16 01:06:47;;;;;;;9.20;6.35;;;;;;;;;;4974201;28;20211;-62
2023/03/16 01:09:14;;;;;;;13.65;6.70;;;;;;;;;;4973277;28;20290;-63
2023/03/16 01:11:43;;;;;;;8.45;6.20;;;;;;;;;;4977442;28;20777;-62
2023/03/16 01:14:10;;;;;;;8.30;6.20;;;;;;;;;;4977984;28;20208;-62
2023/03/16 01:16:38;;;;;;;6.63;5.80;;;;;;;;;;4977957;28;20207;-62
2023/03/16 01:19:05;;;;;;;8.70;5.95;;;;;;;;;;4977701;28;20232;-62
2023/03/16 01:21:35;;;;;;;7.95;6.10;;;;;;;;;;4977908;28;20201;-62
2023/03/16 01:24:03;;;;;;;8.90;5.85;;;;;;;;;;4977866;28;20226;-62
2023/03/16 01:26:31;;;;;;;7.82;5.90;;;;;;;;;;4977397;28;20203;-63
2023/03/16 01:28:58;;;;;;;7.78;5.90;;;;;;;;;;4977246;28;20652;-63
2023/03/16 01:31:27;;;;;;;10.25;5.65;;;;;;;;;;4977273;28;20673;-63
2023/03/16 01:33:54;;;;;;;9.10;6.75;;;;;;;;;;4977136;28;20204;-66
2023/03/16 01:36:21;;;;;;;8.63;5.25;;;;;;;;;;4977550;28;20569;-62
2023/03/16 01:38:50;;;;;;;17.75;6.25;;;;;;;;;;4977379;28;20208;-63
2023/03/16 01:41:17;;;;;;;10.95;5.38;;;;;;;;;;4977447;28;20231;-62
2023/03/16 01:43:45;;;;;;;17.52;6.10;;;;;;;;;;4977388;28;20204;-62
2023/03/16 01:46:20;;;;;;;13.07;5.50;;;;;;;;;;4977558;28;20199;-63
2023/03/16 01:48:58;;;;;;;8.00;5.18;;;;;;;;;;4977316;28;20200;-62
2023/03/16 01:51:28;;;;;;;11.52;6.18;;;;;;;;;;4977702;28;20551;-62
2023/03/16 01:53:59;;;;;;;7.25;5.22;;;;;;;;;;4976687;28;20235;-62
2023/03/16 01:56:28;;;;;;;6.40;4.82;;;;;;;;;;4977219;28;20186;-62
2023/03/16 01:58:57;;;;;;;10.73;6.32;;;;;;;;;;4976753;28;20194;-63
2023/03/16 02:01:25;;;;;;;11.82;6.63;;;;;;;;;;4973233;28;20194;-62
2023/03/16 02:03:54;;;;;;;9.55;5.65;;;;;;;;;;4957469;29;20200;-62
2023/03/16 02:06:22;;;;;;;6.63;5.10;;;;;;;;;;4957242;29;20301;-63
2023/03/16 02:08:54;;;;;;;11.15;5.68;;;;;;;;;;4967384;28;20206;-62
2023/03/16 02:11:22;;;;;;;9.25;6.43;;;;;;;;;;4977166;28;20190;-62
2023/03/16 02:13:51;;;;;;;6.82;5.47;;;;;;;;;;4976913;28;20199;-62
2023/03/16 02:16:21;;;;;;;10.07;6.05;;;;;;;;;;4976533;28;20210;-62
2023/03/16 02:18:49;;;;;;;8.60;5.68;;;;;;;;;;4976682;28;20290;-62
2023/03/16 02:21:19;;;;;;;9.25;6.05;;;;;;;;;;4976597;28;20205;-62
2023/03/16 02:23:49;;;;;;;11.77;5.75;;;;;;;;;;4976545;28;20259;-62
2023/03/16 02:26:22;;;;;;;9.38;5.90;;;;;;;;;;4976735;28;20216;-62
2023/03/16 02:28:56;;;;;;;9.00;6.85;;;;;;;;;;4976434;28;20191;-62
2023/03/16 02:31:24;;;;;;;11.77;5.72;;;;;;;;;;4976624;28;20193;-62
2023/03/16 02:33:52;;;;;;;11.05;5.72;;;;;;;;;;4976074;28;20683;-62
2023/03/16 02:36:20;;;;;;;6.53;5.90;;;;;;;;;;4976434;28;20230;-62
2023/03/16 02:38:47;;;;;;;8.60;6.05;;;;;;;;;;4975976;28;20651;-62
2023/03/16 02:41:16;;;;;;;17.25;7.70;;;;;;;;;;4976226;28;20213;-62
2023/03/16 02:43:46;;;;;;;7.18;5.15;;;;;;;;;;4976186;28;20202;-62
2023/03/16 02:46:14;;;;;;;8.70;5.65;;;;;;;;;;4976738;28;20211;-63
2023/03/16 02:48:44;;;;;;;13.80;6.00;;;;;;;;;;4975863;28;20201;-63
2023/03/16 02:51:12;;;;;;;8.80;5.68;;;;;;;;;;4976438;28;20203;-62
2023/03/16 02:53:39;;;;;;;7.68;4.75;;;;;;;;;;4976238;28;20239;-63
2023/03/16 02:56:07;;;;;;;8.48;5.20;;;;;;;;;;4976163;28;20200;-62
2023/03/16 02:58:34;;;;;;;6.35;4.90;;;;;;;;;;4975591;28;20211;-63
2023/03/16 03:01:02;;;;;;;6.40;4.82;;;;;;;;;;4974565;28;20667;-63
2023/03/16 03:03:33;;;;;;;5.68;5.05;;;;;;;;;;4975730;28;20204;-63
2023/03/16 03:06:01;;;;;;;9.10;5.53;;;;;;;;;;4975564;28;20211;-62
2023/03/16 03:08:28;;;;;;;5.95;4.65;;;;;;;;;;4974994;28;20205;-62
2023/03/16 03:10:56;;;;;;;12.57;5.50;;;;;;;;;;4975516;28;20205;-62
2023/03/16 03:13:23;;;;;;;5.82;4.95;;;;;;;;;;4975804;28;20667;-62
2023/03/16 03:15:51;;;;;;;7.13;4.78;;;;;;;;;;4976142;28;20253;-62
2023/03/16 03:18:18;;;;;;;7.88;5.50;;;;;;;;;;4975379;28;20699;-62
2023/03/16 03:20:45;;;;;;;8.57;4.60;;;;;;;;;;4975247;28;20286;-62
2023/03/16 03:23:15;;;;;;;4.50;4.10;;;;;;;;;;4975953;28;20204;-62
2023/03/16 03:25:42;;;;;;;7.20;5.45;;;;;;;;;;4975371;28;20250;-62
2023/03/16 03:28:10;;;;;;;6.55;4.63;;;;;;;;;;4975519;28;20200;-62
2023/03/16 03:30:37;;;;;;;8.18;4.65;;;;;;;;;;4975414;28;20237;-62
2023/03/16 03:33:04;;;;;;;10.02;5.25;;;;;;;;;;4974714;28;20295;-62
2023/03/16 03:35:31;;;;;;;5.03;4.50;;;;;;;;;;4974972;28;20215;-62
2023/03/16 03:37:59;;;;;;;5.95;4.80;;;;;;;;;;4975548;28;20197;-62
2023/03/16 03:40:27;;;;;;;6.57;4.22;;;;;;;;;;4974820;28;20661;-62
2023/03/16 03:42:54;;;;;;;6.43;4.60;;;;;;;;;;4975203;28;20296;-62
2023/03/16 03:45:21;;;;;;;5.68;4.07;;;;;;;;;;4974967;28;20223;-62
2023/03/16 03:47:49;;;;;;;5.45;4.63;;;;;;;;;;4975352;28;20711;-62
2023/03/16 03:50:16;;;;;;;6.00;4.72;;;;;;;;;;4974770;28;20658;-62
2023/03/16 03:52:43;;;;;;;7.13;3.83;;;;;;;;;;4974918;28;20537;-62
2023/03/16 03:55:11;;;;;;;6.35;4.40;;;;;;;;;;4975011;28;20192;-62
2023/03/16 03:57:39;;;;;;;7.55;4.40;;;;;;;;;;4975009;28;20209;-62
2023/03/16 04:00:10;;;;;;;7.38;5.03;;;;;;;;;;4974573;28;20625;-62
2023/03/16 04:02:37;;;;;;;7.88;5.10;;;;;;;;;;4973986;28;20201;-62
2023/03/16 04:05:04;;;;;;;5.95;4.57;;;;;;;;;;4974707;28;20239;-62
2023/03/16 04:07:31;;;;;;;3.45;3.15;;;;;;;;;;4974043;28;20649;-62
2023/03/16 04:09:59;;;;;;;6.50;4.68;;;;;;;;;;4973861;28;20199;-62
2023/03/16 04:12:26;;;;;;;7.85;4.80;;;;;;;;;;4974676;28;20207;-62
2023/03/16 04:14:54;;;;;;;5.45;4.18;;;;;;;;;;4974788;28;20543;-62
2023/03/16 04:17:22;;;;;;;7.20;5.00;;;;;;;;;;4974814;28;20200;-62
2023/03/16 04:19:49;;;;;;;7.95;4.28;;;;;;;;;;4974704;28;20612;-62
2023/03/16 04:22:17;;;;;;;5.10;4.60;;;;;;;;;;4974725;28;20196;-62
2023/03/16 04:24:44;;;;;;;15.68;6.88;;;;;;;;;;4974169;28;20208;-62
2023/03/16 04:27:11;;;;;;;13.38;5.40;;;;;;;;;;4974685;28;20205;-62
2023/03/16 04:29:39;;;;;;;7.57;5.13;;;;;;;;;;4974672;28;20203;-62
2023/03/16 04:32:07;;;;;;;7.82;5.05;;;;;;;;;;4974726;28;20203;-62
2023/03/16 04:34:35;;;;;;;5.78;4.20;;;;;;;;;;4974163;28;20194;-63
2023/03/16 04:37:02;;;;;;;5.45;4.68;;;;;;;;;;4973227;28;20213;-62
2023/03/16 04:39:29;;;;;;;7.22;4.45;;;;;;;;;;4973854;28;20287;-62
2023/03/16 04:41:57;;;;;;;5.72;4.28;;;;;;;;;;4973549;28;20208;-62
2023/03/16 04:44:24;;;;;;;7.47;3.85;;;;;;;;;;4973543;28;20208;-62
2023/03/16 04:46:52;;;;;;;8.75;4.10;;;;;;;;;;4977638;28;20220;-63
2023/03/16 04:49:20;;;;;;;9.63;4.43;;;;;;;;;;4977401;28;20620;-62
2023/03/16 04:51:47;;;;;;;7.00;5.13;;;;;;;;;;4977724;28;20190;-62
2023/03/16 04:54:15;;;;;;;4.25;3.90;;;;;;;;;;4978061;28;20230;-62
2023/03/16 04:56:42;;;;;;;4.40;3.78;;;;;;;;;;4977975;28;20460;-61
2023/03/16 04:59:09;;;;;;;6.07;4.25;;;;;;;;;;4978036;28;20212;-62
2023/03/16 05:01:37;;;;;;;4.97;3.80;;;;;;;;;;4977732;28;20263;-62
2023/03/16 05:04:04;;;;;;;5.82;4.00;;;;;;;;;;4977608;28;20206;-62
2023/03/16 05:06:32;;;;;;;5.30;4.35;;;;;;;;;;4978052;28;20311;-62
2023/03/16 05:09:00;;;;;;;6.75;3.47;;;;;;;;;;4977675;28;20211;-61
2023/03/16 05:11:28;;;;;;;5.80;3.85;;;;;;;;;;4978034;28;20208;-62
2023/03/16 05:13:55;;;;;;;5.50;3.50;;;;;;;;;;4977472;28;20203;-62
2023/03/16 05:16:22;;;;;;;6.03;3.95;;;;;;;;;;4977761;28;20257;-62
2023/03/16 05:18:51;;;;;;;6.25;3.67;;;;;;;;;;4977694;28;20204;-62
2023/03/16 05:21:18;;;;;;;5.43;4.00;;;;;;;;;;4977407;28;20206;-62
2023/03/16 05:23:47;;;;;;;5.03;3.70;;;;;;;;;;4977909;28;20210;-62
2023/03/16 05:26:14;;;;;;;7.47;3.90;;;;;;;;;;4977193;28;20220;-62
2023/03/16 05:28:42;;;;;;;6.45;4.30;;;;;;;;;;4977500;28;20555;-62
2023/03/16 05:31:09;;;;;;;7.20;4.47;;;;;;;;;;4977176;28;20203;-62
2023/03/16 05:33:36;;;;;;;7.50;3.50;;;;;;;;;;4977523;28;20349;-62
2023/03/16 05:36:04;;;;;;;4.22;3.83;;;;;;;;;;4977276;28;20203;-62
2023/03/16 05:38:31;;;;;;;4.38;3.60;;;;;;;;;;4977607;28;20197;-62
2023/03/16 05:41:03;;;;;;;7.25;4.00;;;;;;;;;;4977307;28;20261;-62
2023/03/16 05:43:30;;;;;;;7.15;4.80;;;;;;;;;;4977574;28;20194;-62
2023/03/16 05:45:58;;;;;;;8.90;4.10;;;;;;;;;;4977084;28;20230;-62
2023/03/16 05:48:25;;;;;;;10.48;5.60;;;;;;;;;;4976760;28;20295;-62
2023/03/16 05:50:52;;;;;;;10.35;3.90;;;;;;;;;;4977384;28;20286;-62
2023/03/16 05:53:20;;;;;;;9.18;3.63;;;;;;;;;;4976526;28;20327;-62
2023/03/16 05:55:52;;;;;;;10.32;3.80;;;;;;;;;;4976420;28;20207;-62
2023/03/16 05:58:21;;;;;;;7.63;4.25;;;;;;;;;;4976190;28;20724;-67
2023/03/16 06:00:49;;;;;;;11.40;3.60;;;;;;;;;;4976653;28;20210;-62
2023/03/16 06:03:16;;;;;;;5.53;4.30;;;;;;;;;;4976833;28;20225;-63
2023/03/16 06:05:44;;;;;;;10.38;3.92;;;;;;;;;;4976930;28;20234;-62
2023/03/16 06:08:11;;;;;;;13.40;4.90;;;;;;;;;;4976750;28;20231;-63
2023/03/16 06:10:38;;;;;;;5.68;3.90;;;;;;;;;;4976801;28;20205;-63
2023/03/16 06:13:05;;;;;;;9.52;4.28;;;;;;;;;;4976825;28;20207;-63
2023/03/16 06:15:34;;;;;;;11.82;4.07;;;;;;;;;;4976902;28;20195;-63
2023/03/16 06:18:01;;;;;;;5.40;3.85;;;;;;;;;;4976077;28;20680;-63
2023/03/16 06:20:28;;;;;;;5.57;4.13;;;;;;;;;;4976358;28;20692;-63
2023/03/16 06:22:55;;;;;;;6.28;4.45;;;;;;;;;;4976430;28;20570;-62
2023/03/16 06:25:22;;;;;;;8.23;4.07;;;;;;;;;;4976410;28;20227;-63
2023/03/16 06:27:50;;;;;;;6.95;4.45;;;;;;;;;;4976214;28;20200;-63
2023/03/16 06:30:17;;;;;;;11.23;4.40;;;;;;;;;;4976646;28;20200;-63
2023/03/16 06:32:46;;;;;;;3.60;2.97;;;;;;;;;;4976107;28;20251;-62
2023/03/16 06:35:13;;;;;;;14.40;7.00;;;;;;;;;;4976597;28;20270;-62
2023/03/16 06:37:41;;;;;;;6.55;4.05;;;;;;;;;;4976748;28;20205;-63
2023/03/16 06:40:09;;;;;;;3.90;3.58;;;;;;;;;;4976485;28;20196;-62
2023/03/16 06:42:36;;;;;;;6.25;3.95;;;;;;;;;;4976347;28;20666;-62
2023/03/16 06:45:03;;;;;;;5.82;3.70;;;;;;;;;;4976233;28;20223;-62
2023/03/16 06:47:31;;;;;;;5.30;4.15;;;;;;;;;;4976025;28;20225;-62
2023/03/16 06:49:59;;;;;;;3.50;3.10;;;;;;;;;;4975913;28;20678;-62
2023/03/16 06:52:27;;;;;;;6.47;3.60;;;;;;;;;;4976082;28;20573;-63
2023/03/16 06:54:54;;;;;;;6.88;4.00;;;;;;;;;;4975737;28;20197;-62
2023/03/16 06:57:21;;;;;;;4.93;4.53;;;;;;;;;;4976171;28;20208;-63
2023/03/16 06:59:48;;;;;;;6.05;3.80;;;;;;;;;;4975675;28;20211;-63
2023/03/16 07:02:15;;;;;;;7.18;3.63;;;;;;;;;;4975484;28;20203;-63
2023/03/16 07:04:43;;;;;;;4.72;3.90;;;;;;;;;;4975608;28;20725;-63
2023/03/16 07:07:11;;;;;;;4.63;3.55;;;;;;;;;;4975419;28;20603;-64
2023/03/16 07:09:39;;;;;;;9.27;3.90;;;;;;;;;;4975928;28;20199;-63
2023/03/16 07:12:07;;;;;;;5.68;3.70;;;;;;;;;;4975872;28;20588;-63
2023/03/16 07:14:34;;;;;;;15.63;4.07;;;;;;;;;;4975690;28;20576;-63
2023/03/16 07:17:01;;;;;;;9.18;3.83;;;;;;;;;;4975603;28;20290;-62
2023/03/16 07:19:29;;;;;;;5.20;3.35;;;;;;;;;;4975717;28;20608;-64
2023/03/16 07:21:56;;;;;;;6.63;3.70;;;;;;;;;;4975159;28;20200;-64
2023/03/16 07:24:24;;;;;;;4.53;4.05;;;;;;;;;;4975622;28;20612;-62
2023/03/16 07:26:52;;;;;;;8.38;4.45;;;;;;;;;;4975152;28;20219;-63
2023/03/16 07:29:19;;;;;;;7.45;3.95;;;;;;;;;;4975389;28;20700;-63
2023/03/16 07:31:46;;;;;;;7.53;5.65;;;;;;;;;;4975393;28;20222;-62
2023/03/16 07:34:14;;;;;;;4.80;4.30;;;;;;;;;;4975290;28;20200;-63
2023/03/16 07:36:41;;;;;;;4.15;3.38;;;;;;;;;;4975344;28;20257;-62
2023/03/16 07:39:08;;;;;;;6.50;3.70;;;;;;;;;;4975330;28;20201;-62
2023/03/16 07:41:37;;;;;;;3.80;3.50;;;;;;;;;;4974940;28;20255;-63
2023/03/16 07:44:04;;;;;;;3.55;3.25;;;;;;;;;;4975190;28;20201;-63
2023/03/16 07:46:31;;;;;;;6.60;3.75;;;;;;;;;;4974837;28;20219;-63
2023/03/16 07:48:58;;;;;;;4.65;3.50;;;;;;;;;;4974994;28;20197;-63
2023/03/16 07:51:26;;;;;;;14.50;3.88;;;;;;;;;;4975148;28;20201;-62
2023/03/16 07:53:53;;;;;;;4.70;3.85;;;;;;;;;;4974841;28;20229;-63
2023/03/16 07:56:21;;;;;;;7.18;4.72;;;;;;;;;;4975195;28;20203;-63
2023/03/16 07:58:50;;;;;;;8.23;4.18;;;;;;;;;;4975167;28;20200;-63
2023/03/16 08:01:17;;;;;;;4.60;4.15;;;;;;;;;;4974871;28;20614;-63
2023/03/16 08:03:44;;;;;;;4.40;3.55;;;;;;;;;;4974592;28;20204;-63
2023/03/16 08:06:11;;;;;;;9.38;4.80;;;;;;;;;;4974564;28;20228;-63
2023/03/16 08:08:39;;;;;;;6.80;4.28;;;;;;;;;;4974395;28;20200;-63
2023/03/16 08:11:06;;;;;;;7.47;4.10;;;;;;;;;;4974909;28;20295;-64
2023/03/16 08:13:34;;;;;;;5.90;4.32;;;;;;;;;;4974485;28;20205;-64
2023/03/16 08:16:04;;;;;;;5.28;4.38;;;;;;;;;;4974869;28;20225;-63
2023/03/16 08:18:31;;;;;;;6.53;3.70;;;;;;;;;;4974980;28;20204;-63
2023/03/16 08:20:59;;;;;;;8.10;4.22;;;;;;;;;;4973822;28;20197;-63
2023/03/16 08:23:28;;;;;;;21.08;4.72;;;;;;;;;;4974763;28;20211;-64
2023/03/16 08:25:55;;;;;;;7.97;4.28;;;;;;;;;;4974731;28;20228;-63
2023/03/16 08:28:24;;;;;;;5.95;4.07;;;;;;;;;;4974273;28;20283;-65
2023/03/16 08:30:52;;;;;;;7.68;4.55;;;;;;;;;;4974421;28;20621;-63
2023/03/16 08:33:21;;;;;;;5.47;4.50;;;;;;;;;;4974606;28;20687;-63
2023/03/16 08:35:48;;;;;;;5.32;3.85;;;;;;;;;;4974937;28;20216;-63
2023/03/16 08:38:16;;;;;;;10.88;4.30;;;;;;;;;;4974766;28;20248;-64
2023/03/16 08:40:47;;;;;;;7.57;4.47;;;;;;;;;;4974670;28;20284;-62
2023/03/16 08:43:14;;;;;;;5.38;3.95;;;;;;;;;;4975265;28;20526;-62
2023/03/16 08:45:43;;;;;;;8.20;4.55;;;;;;;;;;4974207;28;20718;-63
2023/03/16 08:48:11;;;;;;;9.05;4.68;;;;;;;;;;4974732;28;20221;-62
2023/03/16 08:50:42;;;;;;;4.72;4.32;;;;;;;;;;4974416;28;20197;-62
2023/03/16 08:53:10;;;;;;;11.48;5.43;;;;;;;;;;4974130;28;20239;-63
2023/03/16 08:55:39;;;;;;;7.78;5.20;;;;;;;;;;4974373;28;20205;-62
2023/03/16 08:58:06;;;;;;;7.93;3.90;;;;;;;;;;4973971;28;20206;-63
2023/03/16 09:00:34;;;;;;;7.30;4.43;;;;;;;;;;4973939;28;20214;-62
2023/03/16 09:03:01;;;;;;;4.95;3.97;;;;;;;;;;4974581;28;20194;-63
2023/03/16 09:05:29;;;;;;;4.70;4.13;;;;;;;;;;4974058;28;20233;-63
2023/03/16 09:07:58;;;;;;;6.18;4.18;;;;;;;;;;4973946;28;20229;-63
2023/03/16 09:10:26;;;;;;;5.75;4.18;;;;;;;;;;4973950;28;20261;-63
2023/03/16 09:12:53;;;;;;;5.88;4.05;;;;;;;;;;4974292;28;20205;-63
2023/03/16 09:15:21;;;;;;;5.78;4.10;;;;;;;;;;4973869;28;20204;-63
2023/03/16 09:17:49;;;;;;;13.35;5.07;;;;;;;;;;4973828;28;20292;-63
2023/03/16 09:20:17;;;;;;;6.05;4.35;;;;;;;;;;4974131;28;20574;-62
2023/03/16 09:22:45;;;;;;;5.28;4.22;;;;;;;;;;4974191;28;20219;-62
2023/03/16 09:25:14;;;;;;;7.93;4.32;;;;;;;;;;4974094;28;20202;-63
2023/03/16 09:27:41;;;;;;;6.50;4.30;;;;;;;;;;4973699;28;20237;-62
2023/03/16 09:30:09;;;;;;;11.70;4.80;;;;;;;;;;4974129;28;20202;-62
2023/03/16 09:32:37;;;;;;;5.10;4.60;;;;;;;;;;4977194;28;20204;-62
2023/03/16 09:35:05;;;;;;;5.68;4.32;;;;;;;;;;4977211;28;20969;-62
2023/03/16 09:37:32;;;;;;;7.53;4.83;;;;;;;;;;4977404;28;20201;-62
2023/03/16 09:40:00;;;;;;;4.13;3.75;;;;;;;;;;4977724;28;20802;-63
2023/03/16 09:42:35;;;;;;;4.40;4.00;;;;;;;;;;4977139;28;20225;-62
2023/03/16 09:45:06;;;;;;;4.37;3.80;;;;;;;;;;4977615;28;20232;-62
2023/03/16 09:47:35;;;;;;;9.43;4.00;;;;;;;;;;4977350;28;20498;-63
2023/03/16 09:50:06;;;;;;;5.00;4.10;;;;;;;;;;4976942;28;20446;-63
2023/03/16 09:52:37;;;;;;;7.55;5.55;;;;;;;;;;4977242;28;20517;-62
2023/03/16 09:55:07;;;;;;;6.90;4.70;;;;;;;;;;4977303;28;20549;-62
2023/03/16 09:57:39;;;;;;;7.95;4.28;;;;;;;;;;4977559;28;20516;-63
2023/03/16 10:00:15;;;;;;;8.13;4.45;;;;;;;;;;4977196;28;20190;-63
2023/03/16 10:02:50;;;;;;;6.23;3.37;;;;;;;;;;4976914;28;20196;-63
2023/03/16 10:05:20;;;;;;;6.35;3.45;;;;;;;;;;4976869;28;20918;-63
2023/03/16 10:07:51;;;;;;;5.43;3.47;;;;;;;;;;4977329;28;20232;-63
2023/03/16 10:10:27;;;;;;;9.60;3.95;;;;;;;;;;4976635;28;20521;-63
2023/03/16 10:12:58;;;;;;;7.10;3.70;;;;;;;;;;4977872;28;20185;-62
2023/03/16 10:15:27;;;;;;;6.43;3.40;;;;;;;;;;4976452;28;20434;-62
2023/03/16 10:17:56;;;;;;;4.35;2.97;;;;;;;;;;4977265;28;20202;-62
2023/03/16 10:20:26;;;;;;;3.43;2.87;;;;;;;;;;4976771;28;20229;-62
2023/03/16 10:22:53;;;;;;;9.00;3.63;;;;;;;;;;4976518;28;20449;-62
2023/03/16 10:25:23;;;;;;;6.30;3.10;;;;;;;;;;4976613;28;20220;-63
2023/03/16 10:27:51;;;;;;;5.03;3.23;;;;;;;;;;4976343;28;20481;-63
2023/03/16 10:30:24;;;;;;;4.73;3.20;;;;;;;;;;4976480;28;20432;-62
2023/03/16 10:32:52;;;;;;;9.80;3.25;;;;;;;;;;4976354;28;20436;-62
2023/03/16 10:35:32;;;;;;;69.55;12.60;;;;;;;;;;4976380;28;20654;-63
2023/03/16 10:37:59;;;;;;;105.53;15.20;;;;;;;;;;4976544;28;20186;-63
2023/03/16 10:40:26;;;;;;;156.63;20.77;;;;;;;;;;4976327;28;20814;-62
2023/03/16 10:42:54;;;;;;;87.13;13.52;;;;;;;;;;4975568;28;20452;-62
2023/03/16 10:45:27;;;;;;;63.43;9.73;;;;;;;;;;4976293;28;20197;-62
2023/03/16 10:47:54;;;;;;;62.78;12.85;;;;;;;;;;4976493;28;20470;-62
2023/03/16 10:50:26;;;;;;;114.27;16.13;;;;;;;;;;4976194;28;20208;-62
2023/03/16 10:52:55;;;;;;;35.63;7.32;;;;;;;;;;4976611;28;20473;-63
2023/03/16 10:55:25;;;;;;;18.05;4.80;;;;;;;;;;4976021;28;20280;-62
2023/03/16 10:57:53;;;;;;;37.00;8.97;;;;;;;;;;4975708;28;20232;-62
2023/03/16 11:00:22;;;;;;;6.60;3.07;;;;;;;;;;4975962;28;20449;-62
2023/03/16 11:02:53;;;;;;;6.57;3.83;;;;;;;;;;4975652;28;20449;-62
2023/03/16 11:05:26;;;;;;;25.57;4.90;;;;;;;;;;4976346;28;20480;-62
2023/03/16 11:07:56;;;;;;;11.30;3.60;;;;;;;;;;4976354;28;20986;-62
2023/03/16 11:10:29;;;;;;;8.63;3.67;;;;;;;;;;4975732;28;20818;-62
2023/03/16 11:13:01;;;;;;;8.93;5.07;;;;;;;;;;4975775;28;20449;-62
2023/03/16 11:15:36;;;;;;;10.93;4.37;;;;;;;;;;4975767;28;20452;-62
2023/03/16 11:18:05;;;;;;;10.40;3.67;;;;;;;;;;4975383;28;20441;-62
2023/03/16 11:20:34;;;;;;;10.50;3.10;;;;;;;;;;4975966;28;20479;-63
2023/03/16 11:23:01;;;;;;;4.63;3.40;;;;;;;;;;4975322;28;20454;-62
2023/03/16 11:25:32;;;;;;;6.60;3.37;;;;;;;;;;4975466;28;20541;-63
2023/03/16 11:28:05;;;;;;;5.17;3.07;;;;;;;;;;4975531;28;20909;-62
2023/03/16 11:30:36;;;;;;;7.90;3.23;;;;;;;;;;4975057;28;20434;-62
2023/03/16 11:33:08;;;;;;;4.97;3.20;;;;;;;;;;4975849;28;20435;-62
2023/03/16 11:35:40;;;;;;;6.70;3.90;;;;;;;;;;4975625;28;20434;-62
2023/03/16 11:38:11;;;;;;;6.77;3.13;;;;;;;;;;4976203;28;20438;-62
2023/03/16 11:40:44;;;;;;;4.20;2.90;;;;;;;;;;4975900;28;20435;-62
2023/03/16 11:43:19;;;;;;;7.30;2.90;;;;;;;;;;4975033;28;20533;-64
2023/03/16 11:45:52;;;;;;;6.07;4.03;;;;;;;;;;4975403;28;20438;-62
2023/03/16 11:48:31;;;;;;;4.27;3.77;;;;;;;;;;4975505;28;20469;-62
2023/03/16 11:51:05;;;;;;;3.70;2.80;;;;;;;;;;4975215;28;20520;-64
2023/03/16 11:53:53;;;;;;;6.27;3.20;;;;;;;;;;4975193;28;20485;-64
2023/03/16 11:56:26;;;;;;;3.53;3.23;;;;;;;;;;4974721;28;20849;-64
2023/03/16 11:58:58;;;;;;;4.40;3.63;;;;;;;;;;4975173;28;20441;-63
2023/03/16 12:01:33;;;;;;;7.80;3.63;;;;;;;;;;4974648;28;20428;-63
2023/03/16 12:04:08;;;;;;;35.17;9.53;;;;;;;;;;4975144;28;20429;-63
2023/03/16 12:06:42;;;;;;;31.73;6.93;;;;;;;;;;4975131;28;20421;-63
2023/03/16 12:09:19;;;;;;;46.43;8.40;;;;;;;;;;4974870;28;20477;-63
2023/03/16 12:11:49;;;;;;;136.53;22.70;;;;;;;;;;4974832;28;20938;-63
2023/03/16 12:14:19;;;;;;;20.93;6.07;;;;;;;;;;4974955;28;20472;-63
2023/03/16 12:16:48;;;;;;;86.10;13.90;;;;;;;;;;4974961;28;20888;-63
2023/03/16 12:19:21;;;;;;;20.93;6.17;;;;;;;;;;4974971;28;20446;-64
2023/03/16 12:21:52;;;;;;;44.83;10.93;;;;;;;;;;4974425;28;20935;-63
2023/03/16 12:24:21;;;;;;;94.63;16.93;;;;;;;;;;4974507;28;20514;-63
2023/03/16 12:26:48;;;;;;;18.90;6.40;;;;;;;;;;4974301;28;20488;-63
2023/03/16 12:29:19;;;;;;;5.80;3.40;;;;;;;;;;4974680;28;20845;-62
2023/03/16 12:31:49;;;;;;;202.57;31.70;;;;;;;;;;4974684;28;20465;-63
2023/03/16 12:34:24;;;;;;;49.63;10.90;;;;;;;;;;4974369;28;20458;-63
2023/03/16 12:37:11;;;;;;;100.90;16.57;;;;;;;;;;4974931;28;20508;-63
2023/03/16 12:39:48;;;;;;;9.83;4.10;;;;;;;;;;4974200;28;20465;-63
2023/03/16 12:42:31;;;;;;;42.03;6.63;;;;;;;;;;4974663;28;20429;-63
2023/03/16 12:45:01;;;;;;;6.10;3.50;;;;;;;;;;4966324;28;20543;-63
2023/03/16 12:47:33;;;;;;;3.10;2.27;;;;;;;;;;4974414;28;20438;-64
2023/03/16 12:50:06;;;;;;;4.17;3.30;;;;;;;;;;4974203;28;20438;-63
2023/03/16 12:52:41;;;;;;;3.10;2.63;;;;;;;;;;4974038;28;20442;-62
2023/03/16 12:55:12;;;;;;;3.30;3.10;;;;;;;;;;4974416;28;20489;-63
2023/03/16 12:57:41;;;;;;;3.20;2.90;;;;;;;;;;4974709;28;20434;-64
2023/03/16 13:00:09;;;;;;;7.17;2.73;;;;;;;;;;4974104;28;21088;-64
2023/03/16 13:02:36;;;;;;;3.77;3.00;;;;;;;;;;4973940;28;20447;-63
2023/03/16 13:05:09;;;;;;;3.87;3.00;;;;;;;;;;4974078;28;20455;-63
2023/03/16 13:07:38;;;;;;;3.90;3.00;;;;;;;;;;4977624;28;20442;-63
2023/03/16 13:10:08;;;;;;;5.77;3.30;;;;;;;;;;4978963;28;20999;-63
2023/03/16 13:12:37;;;;;;;4.10;3.27;;;;;;;;;;4978070;28;20437;-63
2023/03/16 13:15:16;;;;;;;11.10;3.93;;;;;;;;;;4977765;28;20445;-63
2023/03/16 13:17:44;;;;;;;6.20;3.10;;;;;;;;;;4978204;28;20435;-63
2023/03/16 13:20:26;;;;;;;8.30;2.83;;;;;;;;;;4978634;28;20534;-62
2023/03/16 13:23:08;;;;;;;3.60;3.00;;;;;;;;;;4976076;28;20449;-63
2023/03/16 13:25:40;;;;;;;7.50;3.30;;;;;;;;;;4978262;28;20798;-63
2023/03/16 13:28:12;;;;;;;6.40;3.30;;;;;;;;;;4977360;28;20568;-63
2023/03/16 13:30:43;;;;;;;3.30;2.90;;;;;;;;;;4978462;28;20425;-62
2023/03/16 13:33:18;;;;;;;7.27;3.80;;;;;;;;;;4977859;28;20438;-63
2023/03/16 13:35:46;;;;;;;4.80;3.00;;;;;;;;;;4977721;28;20445;-63
2023/03/16 13:38:16;;;;;;;3.07;2.80;;;;;;;;;;4977193;28;20449;-63
2023/03/16 13:40:46;;;;;;;7.90;2.70;;;;;;;;;;4977837;28;20451;-63
2023/03/16 13:43:15;;;;;;;5.00;3.60;;;;;;;;;;4977206;28;20438;-63
2023/03/16 13:45:43;;;;;;;7.97;3.07;;;;;;;;;;4977434;28;20486;-63
2023/03/16 13:48:13;;;;;;;5.17;3.67;;;;;;;;;;4977668;28;20479;-63
2023/03/16 13:50:42;;;;;;;3.77;2.70;;;;;;;;;;4977059;28;20961;-63
2023/03/16 13:53:14;;;;;;;5.23;3.30;;;;;;;;;;4976766;28;20485;-63
2023/03/16 13:55:44;;;;;;;2.67;2.47;;;;;;;;;;4977607;28;20433;-63
2023/03/16 13:58:20;;;;;;;3.17;2.83;;;;;;;;;;4977975;28;20437;-63
2023/03/16 14:00:47;;;;;;;3.90;2.57;;;;;;;;;;4977998;28;20437;-62
2023/03/16 14:03:16;;;;;;;3.80;2.73;;;;;;;;;;4977101;28;20449;-62
2023/03/16 14:05:44;;;;;;;5.20;2.97;;;;;;;;;;4977045;28;20489;-62
2023/03/16 14:08:18;;;;;;;4.60;3.50;;;;;;;;;;4976907;28;20839;-62
2023/03/16 14:10:47;;;;;;;5.03;2.57;;;;;;;;;;4976745;28;20451;-62
2023/03/16 14:13:25;;;;;;;8.60;3.73;;;;;;;;;;4976559;28;20445;-63
2023/03/16 14:15:53;;;;;;;3.23;2.93;;;;;;;;;;4975803;28;20448;-63
2023/03/16 14:18:24;;;;;;;5.97;2.60;;;;;;;;;;4976039;28;20540;-62
2023/03/16 14:20:52;;;;;;;4.67;3.33;;;;;;;;;;4976927;28;20444;-62
2023/03/16 14:23:21;;;;;;;14.27;4.20;;;;;;;;;;4976473;28;20455;-63
2023/03/16 14:25:50;;;;;;;6.13;3.27;;;;;;;;;;4976267;28;20444;-62
2023/03/16 14:28:19;;;;;;;6.40;2.77;;;;;;;;;;4976353;28;20525;-62
2023/03/16 14:30:51;;;;;;;7.40;2.97;;;;;;;;;;4976450;28;20474;-62
2023/03/16 14:33:28;;;;;;;4.03;2.50;;;;;;;;;;4976297;28;20454;-63
2023/03/16 14:35:57;;;;;;;3.97;2.70;;;;;;;;;;4976238;28;20445;-62
2023/03/16 14:38:29;;;;;;;3.43;3.00;;;;;;;;;;4975940;28;20480;-62
2023/03/16 14:40:59;;;;;;;3.93;3.17;;;;;;;;;;4975997;28;20920;-62
2023/03/16 14:43:30;;;;;;;7.50;3.57;;;;;;;;;;4976217;28;20862;-62
2023/03/16 14:45:58;;;;;;;5.90;3.40;;;;;;;;;;4975983;28;20817;-63
2023/03/16 14:48:25;;;;;;;3.70;3.00;;;;;;;;;;4975876;28;20481;-63